Time;durP1;ratioP1;P1;durP2;ratioP2;P2;SDS_P1;SDS_P2;PMS_P1;PMS_P2;Temp;Humidity;BMP_temperature;BMP_pressure;BME280_temperature;BME280_humidity;BME280_pressure;Samples;Min_cycle;Max_cycle;Signal;HPM_P1;HPM_P2
2022/08/12 00:43:23;;;;;;;1.33;0.40;;;18.30;76.30;;;;;;5073007;28;20047;-86
2022/08/12 00:46:35;;;;;;;1.73;0.43;;;18.30;76.50;;;;;;5072230;28;20033;-85
2022/08/12 00:48:37;;;;;;;1.75;0.70;;;18.20;76.80;;;;;;5068505;28;20068;-84
2022/08/12 00:51:04;;;;;;;2.45;0.63;;;18.20;77.10;;;;;;5071293;28;20270;-85
2022/08/12 00:53:30;;;;;;;2.47;0.60;;;18.20;77.20;;;;;;5071474;28;20017;-84
2022/08/12 00:55:58;;;;;;;1.83;0.70;;;18.20;77.50;;;;;;5070395;28;20043;-85
2022/08/12 00:58:27;;;;;;;0.90;0.47;;;18.20;77.70;;;;;;5072118;28;20028;-86
2022/08/12 01:00:59;;;;;;;1.05;0.45;;;18.20;77.90;;;;;;5071131;28;20029;-85
2022/08/12 01:11:27;;;;;;;4.03;0.57;;;18.20;77.80;;;;;;5070494;28;20093;-86
2022/08/12 01:11:43;;;;;;;2.78;0.57;;;18.10;77.90;;;;;;5072374;28;20054;-84
2022/08/12 01:14:09;;;;;;;1.75;0.85;;;18.10;78.20;;;;;;5068921;28;20036;-82
2022/08/12 01:16:35;;;;;;;1.52;0.60;;;18.10;78.40;;;;;;5067838;28;20024;-84
2022/08/12 01:19:02;;;;;;;1.73;0.50;;;18.00;78.60;;;;;;5068227;28;20016;-84
2022/08/12 01:22:10;;;;;;;1.88;0.77;;;18.00;78.90;;;;;;5070424;28;20270;-84
2022/08/12 01:24:48;;;;;;;2.47;0.60;;;18.00;79.40;;;;;;5057403;28;20123;-85
2022/08/12 01:27:16;;;;;;;2.30;0.70;;;18.00;79.80;;;;;;5070729;28;20039;-86
2022/08/12 01:29:43;;;;;;;1.85;1.02;;;17.90;79.90;;;;;;5071018;28;20130;-86
2022/08/12 01:32:11;;;;;;;1.17;0.55;;;17.90;80.00;;;;;;5070307;28;20021;-84
2022/08/12 01:34:40;;;;;;;5.70;0.93;;;17.90;80.20;;;;;;5071234;28;20032;-85
2022/08/12 01:37:07;;;;;;;2.42;0.70;;;17.90;80.60;;;;;;5071226;28;20025;-84
2022/08/12 01:39:41;;;;;;;1.60;1.00;;;17.80;80.70;;;;;;5070270;28;20511;-84
2022/08/12 01:42:08;;;;;;;1.73;0.50;;;17.80;80.90;;;;;;5070267;28;20029;-85
2022/08/12 01:44:35;;;;;;;1.58;0.50;;;17.90;81.20;;;;;;5069524;28;20024;-86
2022/08/12 01:47:41;;;;;;;4.60;0.60;;;17.80;82.20;;;;;;5070921;28;20114;-86
2022/08/12 01:50:07;;;;;;;1.42;0.60;;;17.80;82.10;;;;;;5070578;28;20504;-85
2022/08/12 01:52:58;;;;;;;1.17;0.55;;;17.70;82.20;;;;;;5070423;28;20035;-86
2022/08/12 01:55:33;;;;;;;1.10;0.50;;;17.70;82.70;;;;;;5070479;28;20145;-86
2022/08/12 01:58:13;;;;;;;3.22;0.60;;;17.70;82.90;;;;;;5069720;28;20029;-86
2022/08/12 02:00:47;;;;;;;1.08;0.60;;;17.70;83.10;;;;;;5071445;28;20123;-85
2022/08/12 02:03:21;;;;;;;0.70;0.52;;;17.70;83.30;;;;;;5069992;28;20079;-84
2022/08/12 02:12:11;;;;;;;1.27;0.50;;;17.70;84.00;;;;;;5072103;28;20082;-86
2022/08/12 02:15:02;;;;;;;3.75;0.65;;;17.70;83.70;;;;;;5071335;28;20025;-86
2022/08/12 02:17:46;;;;;;;3.65;0.50;;;17.80;84.40;;;;;;5070453;28;20035;-85
2022/08/12 02:20:42;;;;;;;1.83;0.60;;;17.70;84.20;;;;;;5071128;28;20028;-85
2022/08/12 02:23:11;;;;;;;6.10;0.65;;;17.70;84.40;;;;;;5069764;28;20516;-86
2022/08/12 02:25:43;;;;;;;1.92;0.80;;;17.70;84.70;;;;;;5071540;28;20032;-86
2022/08/12 02:28:10;;;;;;;1.45;0.60;;;17.70;85.00;;;;;;5069421;28;20028;-86
2022/08/12 02:30:36;;;;;;;1.40;0.55;;;17.70;85.20;;;;;;5069654;28;20035;-86
2022/08/12 02:33:04;;;;;;;3.10;0.88;;;17.70;85.60;;;;;;5069848;28;20417;-86
2022/08/12 02:35:34;;;;;;;3.65;0.55;;;17.70;85.80;;;;;;5069395;28;20059;-86
2022/08/12 02:38:03;;;;;;;1.35;0.73;;;17.70;85.90;;;;;;5069883;28;20036;-85
2022/08/12 02:40:29;;;;;;;5.95;0.82;;;17.70;86.00;;;;;;5069778;28;20029;-85
2022/08/12 02:43:26;;;;;;;7.38;0.75;;;17.70;86.20;;;;;;5069236;28;20074;-86
2022/08/12 02:45:52;;;;;;;7.50;0.80;;;17.70;86.40;;;;;;5062946;28;20485;-84
2022/08/12 02:48:39;;;;;;;7.82;0.80;;;17.70;86.50;;;;;;5067390;28;20035;-84
2022/08/12 02:51:08;;;;;;;2.17;1.00;;;17.70;86.80;;;;;;5066852;28;20119;-84
2022/08/12 02:53:36;;;;;;;7.55;0.82;;;17.70;87.10;;;;;;5067941;28;20328;-83
2022/08/12 02:56:02;;;;;;;1.50;0.80;;;17.70;87.30;;;;;;5067695;28;20107;-85
2022/08/12 02:58:30;;;;;;;1.48;0.60;;;17.70;87.60;;;;;;5067629;28;20044;-84
2022/08/12 03:01:00;;;;;;;0.90;0.60;;;17.70;87.80;;;;;;5068981;28;20032;-85
2022/08/12 03:03:31;;;;;;;1.80;0.70;;;17.70;88.00;;;;;;5069185;28;20134;-86
2022/08/12 03:06:11;;;;;;;1.77;0.80;;;17.70;88.30;;;;;;5069499;28;20131;-86
2022/08/12 03:08:41;;;;;;;4.35;0.80;;;17.70;88.50;;;;;;5073153;28;20039;-85
2022/08/12 03:11:22;;;;;;;2.17;0.90;;;17.60;88.80;;;;;;5069087;28;20016;-85
2022/08/12 03:13:56;;;;;;;3.72;1.00;;;17.70;89.20;;;;;;5069692;28;20020;-85
2022/08/12 03:16:22;;;;;;;2.05;0.95;;;17.60;89.40;;;;;;5068971;28;20024;-85
2022/08/12 03:18:50;;;;;;;1.27;0.80;;;17.60;89.70;;;;;;5068423;28;20459;-85
2022/08/12 03:21:18;;;;;;;2.30;1.10;;;17.60;90.00;;;;;;5068441;28;20037;-85
2022/08/12 03:23:46;;;;;;;4.75;0.95;;;17.60;90.10;;;;;;5068335;28;20044;-85
2022/08/12 03:26:13;;;;;;;1.58;0.65;;;17.60;90.20;;;;;;5068956;28;20029;-85
2022/08/12 03:28:50;;;;;;;4.07;0.90;;;17.60;90.40;;;;;;5068405;28;20025;-84
2022/08/12 03:31:35;;;;;;;5.63;0.77;;;17.60;90.60;;;;;;5067542;28;20028;-84
2022/08/12 03:34:06;;;;;;;1.55;0.93;;;17.60;90.90;;;;;;5047755;28;20033;-84
2022/08/12 03:36:35;;;;;;;2.00;0.85;;;17.60;90.80;;;;;;5047962;28;20218;-84
2022/08/12 03:41:50;;;;;;;5.35;0.80;;;17.60;91.20;;;;;;5049431;28;20053;-84
2022/08/12 04:01:26;;;;;;;1.92;0.80;;;18.00;91.80;;;;;;5070031;28;20039;-86
2022/08/12 04:03:53;;;;;;;3.00;0.75;;;18.00;91.70;;;;;;5068602;28;20033;-85
2022/08/12 04:06:28;;;;;;;1.10;0.70;;;18.10;91.70;;;;;;5069859;28;20099;-86
2022/08/12 04:08:57;;;;;;;1.85;0.70;;;18.20;91.60;;;;;;5078072;28;20641;-85
2022/08/12 04:14:12;;;;;;;4.57;0.95;;;18.40;91.50;;;;;;5050071;28;20028;-85
2022/08/12 04:16:39;;;;;;;2.15;0.90;;;18.50;91.40;;;;;;5048177;28;20164;-85
2022/08/12 04:19:05;;;;;;;1.67;0.80;;;18.60;91.30;;;;;;5047371;28;20021;-84
2022/08/12 04:21:32;;;;;;;6.65;0.80;;;18.70;91.10;;;;;;5047632;28;20029;-83
2022/08/12 04:23:59;;;;;;;1.33;0.80;;;18.80;90.90;;;;;;5047420;28;20099;-86
2022/08/12 04:26:26;;;;;;;1.38;0.63;;;18.90;90.80;;;;;;5056453;28;20020;-84
2022/08/12 04:28:55;;;;;;;3.80;0.90;;;19.00;90.60;;;;;;5054350;28;20525;-85
2022/08/12 04:31:36;;;;;;;2.15;0.70;;;19.10;90.70;;;;;;5050332;28;20028;-86
2022/08/12 04:34:03;;;;;;;4.60;0.93;;;19.10;90.70;;;;;;5061822;28;20499;-86
2022/08/12 04:36:29;;;;;;;1.15;0.60;;;19.20;90.60;;;;;;5070919;28;20052;-83
2022/08/12 04:38:57;;;;;;;5.45;0.77;;;19.20;90.60;;;;;;5069943;28;20030;-82
2022/08/12 04:41:24;;;;;;;1.63;0.70;;;19.30;90.40;;;;;;5070971;28;20032;-84
2022/08/12 04:43:50;;;;;;;1.30;0.68;;;19.40;90.30;;;;;;5071649;28;20501;-85
2022/08/12 04:46:16;;;;;;;6.97;2.65;;;19.50;90.20;;;;;;5071830;28;20029;-85
2022/08/12 04:48:42;;;;;;;4.75;0.70;;;19.60;90.20;;;;;;5066645;28;20125;-85
2022/08/12 04:51:08;;;;;;;5.00;0.98;;;19.70;90.10;;;;;;5071137;28;20028;-84
2022/08/12 04:53:35;;;;;;;4.82;0.73;;;19.70;90.20;;;;;;5071168;28;20032;-83
2022/08/12 04:56:00;;;;;;;2.55;1.02;;;19.80;90.50;;;;;;5058784;28;20089;-83
2022/08/12 04:58:27;;;;;;;3.53;1.23;;;19.90;90.70;;;;;;5062176;28;20119;-83
2022/08/12 05:00:53;;;;;;;4.88;0.90;;;19.90;90.60;;;;;;5069257;28;20033;-83
2022/08/12 05:03:19;;;;;;;3.17;0.95;;;20.10;90.40;;;;;;5069835;28;20495;-85
2022/08/12 05:05:45;;;;;;;6.75;1.17;;;20.20;90.10;;;;;;5070981;28;20017;-84
2022/08/12 05:08:15;;;;;;;2.00;1.00;;;20.30;90.00;;;;;;5071886;28;20062;-86
2022/08/12 05:10:46;;;;;;;2.47;0.70;;;20.30;89.60;;;;;;5072071;28;20024;-84
2022/08/12 05:13:17;;;;;;;6.20;1.15;;;20.30;89.60;;;;;;5072435;28;20114;-85
2022/08/12 05:15:46;;;;;;;3.70;1.08;;;20.30;89.10;;;;;;5070413;28;20082;-85
2022/08/12 05:18:12;;;;;;;1.90;1.10;;;20.30;89.10;;;;;;5069604;28;20032;-85
2022/08/12 05:20:38;;;;;;;7.63;1.10;;;20.40;89.50;;;;;;5067821;28;20184;-83
2022/08/12 05:23:09;;;;;;;1.60;0.80;;;20.50;87.60;;;;;;5065091;28;20052;-84
2022/08/12 05:25:35;;;;;;;2.83;0.95;;;20.70;85.20;;;;;;5070297;28;20036;-84
2022/08/12 05:28:01;;;;;;;2.58;1.00;;;20.90;84.40;;;;;;5069892;28;20021;-84
2022/08/12 05:30:29;;;;;;;3.58;0.75;;;21.10;84.80;;;;;;5071757;28;20035;-84
2022/08/12 05:32:56;;;;;;;4.72;1.00;;;21.30;84.50;;;;;;5070132;28;20500;-84
2022/08/12 05:35:22;;;;;;;3.53;1.00;;;21.40;84.20;;;;;;5055535;28;20076;-84
2022/08/12 05:38:54;;;;;;;1.65;0.80;;;21.60;83.40;;;;;;5050208;28;20024;-85
2022/08/12 05:40:34;;;;;;;1.90;0.90;;;21.70;82.00;;;;;;5051302;28;20541;-84
2022/08/12 05:43:00;;;;;;;1.85;0.80;;;21.90;81.30;;;;;;5068857;28;20041;-85
2022/08/12 05:45:26;;;;;;;3.63;0.98;;;22.10;78.90;;;;;;5071683;28;20027;-84
2022/08/12 05:47:52;;;;;;;3.10;0.80;;;22.30;77.80;;;;;;5069718;28;20037;-84
2022/08/12 05:50:18;;;;;;;2.53;0.90;;;22.40;77.60;;;;;;5070257;28;20021;-85
2022/08/12 05:52:44;;;;;;;1.70;0.80;;;22.40;76.70;;;;;;5069672;28;20028;-85
2022/08/12 05:55:09;;;;;;;2.15;0.57;;;22.30;77.00;;;;;;5069532;28;20025;-84
2022/08/12 05:57:35;;;;;;;2.25;0.88;;;22.20;77.50;;;;;;5069082;28;20032;-83
2022/08/12 06:00:02;;;;;;;4.95;0.60;;;22.30;76.80;;;;;;5069069;28;20024;-84
2022/08/12 06:02:28;;;;;;;1.92;0.75;;;22.20;77.10;;;;;;5069085;28;20036;-85
2022/08/12 06:04:56;;;;;;;5.80;0.93;;;22.30;76.40;;;;;;5069272;28;20036;-84
2022/08/12 06:07:23;;;;;;;5.95;1.00;;;22.20;76.70;;;;;;5069546;28;20485;-84
2022/08/12 06:09:49;;;;;;;4.88;0.98;;;22.20;76.60;;;;;;5068727;28;20024;-84
2022/08/12 06:12:16;;;;;;;2.83;1.05;;;22.20;76.60;;;;;;5069551;28;20147;-84
2022/08/12 06:14:43;;;;;;;2.53;1.17;;;22.30;76.50;;;;;;5068922;28;20052;-82
2022/08/12 06:17:09;;;;;;;2.65;0.77;;;22.30;75.70;;;;;;5067183;28;20115;-83
2022/08/12 06:19:35;;;;;;;4.03;0.88;;;22.50;75.50;;;;;;5068743;28;20119;-85
2022/08/12 06:22:01;;;;;;;4.78;0.80;;;22.50;75.80;;;;;;5068554;28;20052;-84
2022/08/12 06:24:28;;;;;;;3.25;0.75;;;22.60;75.40;;;;;;5069150;28;20527;-85
2022/08/12 06:26:55;;;;;;;2.90;0.70;;;22.80;74.70;;;;;;5060720;28;20035;-85
2022/08/12 06:29:22;;;;;;;5.72;0.80;;;22.80;74.60;;;;;;5067716;28;20066;-82
2022/08/12 06:31:51;;;;;;;1.63;0.70;;;23.00;74.50;;;;;;5068435;28;20024;-85
2022/08/12 06:34:17;;;;;;;6.03;0.75;;;23.10;74.10;;;;;;5069196;28;20024;-85
2022/08/12 06:36:44;;;;;;;4.30;1.08;;;23.10;73.20;;;;;;5069362;28;20031;-86
2022/08/12 06:39:13;;;;;;;2.33;0.75;;;23.20;73.30;;;;;;5065022;28;20036;-84
2022/08/12 06:44:24;;;;;;;2.20;1.15;;;23.00;73.00;;;;;;5052781;28;20036;-84
2022/08/12 06:46:51;;;;;;;2.13;0.90;;;23.00;73.00;;;;;;5067553;28;20028;-82
2022/08/12 06:49:17;;;;;;;3.03;0.80;;;22.80;73.60;;;;;;5067707;28;20024;-83
2022/08/12 06:51:43;;;;;;;3.25;0.50;;;22.90;73.40;;;;;;5069005;28;20032;-84
2022/08/12 06:54:10;;;;;;;1.63;0.60;;;23.00;73.40;;;;;;5066918;28;20016;-84
2022/08/12 06:56:36;;;;;;;3.17;0.85;;;23.00;73.00;;;;;;5067377;28;20028;-83
2022/08/12 06:59:02;;;;;;;2.88;0.50;;;23.00;72.80;;;;;;5068784;28;20074;-83
2022/08/12 07:01:30;;;;;;;3.08;0.70;;;23.00;73.00;;;;;;5068048;28;20056;-84
2022/08/12 07:03:57;;;;;;;3.17;1.02;;;23.10;72.40;;;;;;5068627;28;20115;-87
2022/08/12 07:06:22;;;;;;;1.00;0.60;;;23.00;72.40;;;;;;5069503;28;20109;-84
2022/08/12 07:08:48;;;;;;;2.10;1.00;;;22.90;72.90;;;;;;5068652;28;20097;-83
2022/08/12 07:11:14;;;;;;;0.90;0.50;;;22.90;72.10;;;;;;5068158;28;20024;-84
2022/08/12 07:13:48;;;;;;;2.13;1.02;;;22.90;72.60;;;;;;5069231;28;20130;-85
2022/08/12 07:16:16;;;;;;;1.95;0.80;;;22.90;72.80;;;;;;5068698;28;20055;-85
2022/08/12 07:18:43;;;;;;;1.83;0.60;;;23.10;72.60;;;;;;5067880;28;20029;-85
2022/08/12 07:21:09;;;;;;;2.05;0.68;;;23.50;72.30;;;;;;5068485;28;20082;-83
2022/08/12 07:23:37;;;;;;;4.45;0.90;;;23.80;71.00;;;;;;5068170;28;20049;-85
2022/08/12 07:26:06;;;;;;;3.85;0.90;;;24.10;70.70;;;;;;5065167;28;20028;-85
2022/08/12 07:28:34;;;;;;;1.38;0.70;;;24.40;70.60;;;;;;5054549;28;20048;-87
2022/08/12 07:31:07;;;;;;;2.65;0.82;;;24.70;69.40;;;;;;5067367;28;20563;-84
2022/08/12 07:33:37;;;;;;;2.03;0.98;;;24.90;68.80;;;;;;5067559;28;20020;-85
2022/08/12 07:36:05;;;;;;;1.75;0.65;;;25.50;67.90;;;;;;5069120;28;20108;-86
2022/08/12 07:38:38;;;;;;;1.80;0.80;;;26.30;66.60;;;;;;5046295;28;20029;-86
2022/08/12 07:41:13;;;;;;;1.80;0.73;;;27.50;63.70;;;;;;5048399;28;20401;-87
2022/08/12 07:43:42;;;;;;;9.07;1.00;;;28.60;61.00;;;;;;5066809;28;20127;-85
2022/08/12 07:46:10;;;;;;;1.90;0.77;;;29.50;58.90;;;;;;5067270;28;20033;-84
2022/08/12 07:48:39;;;;;;;2.55;0.82;;;30.60;55.70;;;;;;5065960;28;20075;-84
2022/08/12 07:51:06;;;;;;;3.70;0.80;;;31.40;53.60;;;;;;5065509;28;20386;-82
2022/08/12 07:53:32;;;;;;;4.07;0.77;;;32.10;50.70;;;;;;5065489;28;20035;-80
2022/08/12 07:55:58;;;;;;;1.02;0.65;;;32.60;47.80;;;;;;5064667;28;20029;-82
2022/08/12 07:58:25;;;;;;;2.35;0.85;;;33.50;46.30;;;;;;5064862;28;20107;-82
2022/08/12 08:00:53;;;;;;;2.33;0.70;;;33.70;44.90;;;;;;5064227;28;20025;-82
2022/08/12 08:03:19;;;;;;;1.75;0.77;;;34.20;42.70;;;;;;5063668;28;20045;-82
2022/08/12 08:05:48;;;;;;;1.70;0.68;;;34.30;41.60;;;;;;5059818;28;20079;-80
2022/08/12 08:08:27;;;;;;;2.33;0.95;;;34.10;40.80;;;;;;5051289;28;20442;-81
2022/08/12 08:12:52;;;;;;;2.55;0.70;;;34.30;40.50;;;;;;5046713;28;20045;-82
2022/08/12 08:13:44;;;;;;;2.47;0.90;;;33.40;40.40;;;;;;5052853;28;20045;-81
2022/08/12 08:16:14;;;;;;;1.85;0.70;;;33.40;40.10;;;;;;5049497;28;20075;-80
2022/08/12 08:18:40;;;;;;;1.60;0.82;;;33.30;39.90;;;;;;5049739;28;20036;-81
2022/08/12 08:21:07;;;;;;;1.75;0.70;;;33.20;39.80;;;;;;5057256;28;20036;-82
2022/08/12 08:26:25;;;;;;;1.92;0.90;;;32.60;40.70;;;;;;5049985;28;20535;-81
2022/08/12 08:28:51;;;;;;;5.95;0.82;;;32.70;40.60;;;;;;5053607;28;20132;-81
2022/08/12 08:31:17;;;;;;;5.50;0.98;;;32.60;41.20;;;;;;5048723;28;20064;-81
2022/08/12 08:33:43;;;;;;;4.80;0.60;;;32.90;40.90;;;;;;5051951;28;20497;-81
2022/08/12 08:36:09;;;;;;;1.50;0.60;;;33.40;39.70;;;;;;5051973;28;20080;-80
2022/08/12 08:38:34;;;;;;;1.58;0.70;;;33.50;39.80;;;;;;5048864;28;20414;-80
2022/08/12 08:43:48;;;;;;;4.93;0.90;;;33.20;39.20;;;;;;5052757;28;20604;-81
2022/08/12 08:46:13;;;;;;;2.58;0.85;;;33.30;39.70;;;;;;5051186;28;20115;-81
2022/08/12 08:48:39;;;;;;;4.43;0.77;;;33.50;38.90;;;;;;5049836;28;20041;-81
2022/08/12 08:51:06;;;;;;;3.53;0.90;;;33.30;38.50;;;;;;5047447;28;20041;-81
2022/08/12 08:53:33;;;;;;;1.77;0.60;;;33.20;39.40;;;;;;5052218;28;20076;-82
2022/08/12 08:55:58;;;;;;;1.30;0.82;;;33.40;38.70;;;;;;5048605;28;20040;-82
2022/08/12 08:58:25;;;;;;;2.50;0.80;;;33.60;38.90;;;;;;5048047;28;20051;-82
2022/08/12 09:00:51;;;;;;;1.27;0.82;;;33.30;38.40;;;;;;5053868;28;20465;-81
2022/08/12 09:03:17;;;;;;;2.22;0.68;;;33.40;38.40;;;;;;5074461;28;20045;-81
2022/08/12 09:05:43;;;;;;;1.50;0.60;;;33.50;38.40;;;;;;5075059;28;20157;-81
2022/08/12 09:08:09;;;;;;;1.88;0.75;;;33.10;38.00;;;;;;5068289;28;20040;-81
2022/08/12 09:10:37;;;;;;;1.73;0.68;;;32.40;39.00;;;;;;5063139;28;20562;-81
2022/08/12 09:15:47;;;;;;;1.75;0.90;;;31.50;40.50;;;;;;5053486;28;20185;-80
2022/08/12 09:18:14;;;;;;;2.38;0.80;;;31.10;41.40;;;;;;5059579;28;20111;-82
2022/08/12 09:20:40;;;;;;;0.95;0.63;;;30.60;41.90;;;;;;5058084;28;20086;-83
2022/08/12 09:23:10;;;;;;;1.45;0.70;;;30.20;42.30;;;;;;5057065;28;20576;-82
2022/08/12 09:25:38;;;;;;;1.23;0.60;;;30.10;43.00;;;;;;5056418;28;20049;-83
2022/08/12 09:28:07;;;;;;;1.52;0.70;;;30.40;43.20;;;;;;5060761;28;20024;-82
2022/08/12 09:30:33;;;;;;;0.88;0.60;;;31.20;42.10;;;;;;5059793;28;20040;-81
2022/08/12 09:32:59;;;;;;;3.00;0.90;;;31.80;41.40;;;;;;5060477;28;20044;-81
2022/08/12 09:35:30;;;;;;;6.30;1.00;;;32.60;40.80;;;;;;5069993;28;20040;-80
2022/08/12 09:37:56;;;;;;;6.65;1.10;;;32.80;39.30;;;;;;5075581;28;20369;-80
2022/08/12 09:40:23;;;;;;;2.88;0.80;;;33.00;39.00;;;;;;5071109;28;20090;-80
2022/08/12 09:45:34;;;;;;;5.88;1.02;;;32.60;39.30;;;;;;5074091;28;20051;-80
2022/08/12 09:48:07;;;;;;;6.63;0.90;;;32.10;39.90;;;;;;5076179;28;20747;-81
2022/08/12 09:50:34;;;;;;;2.45;0.88;;;32.30;39.00;;;;;;5077225;28;20408;-82
2022/08/12 09:53:08;;;;;;;1.48;0.80;;;31.90;39.50;;;;;;5072438;28;20456;-81
2022/08/12 09:55:34;;;;;;;1.95;0.70;;;32.00;39.60;;;;;;5073818;28;20041;-82
2022/08/12 09:58:03;;;;;;;1.95;0.70;;;32.50;39.70;;;;;;5072053;28;20129;-81
2022/08/12 10:00:33;;;;;;;5.45;0.60;;;33.20;38.30;;;;;;5071232;28;20047;-81
2022/08/12 10:03:02;;;;;;;9.20;0.80;;;33.40;37.70;;;;;;5072739;28;20155;-81
2022/08/12 10:05:35;;;;;;;2.35;0.70;;;33.60;37.20;;;;;;5068961;28;20032;-82
2022/08/12 10:08:01;;;;;;;1.42;0.63;;;33.50;38.00;;;;;;5076386;28;20036;-81
2022/08/12 10:10:27;;;;;;;5.55;0.98;;;33.60;37.20;;;;;;5072516;28;20516;-82
2022/08/12 10:15:43;;;;;;;4.18;1.05;;;31.90;38.40;;;;;;5072833;28;20047;-81
2022/08/12 10:18:12;;;;;;;6.47;1.00;;;30.90;39.30;;;;;;5064238;28;20040;-84
2022/08/12 10:20:41;;;;;;;1.33;0.63;;;30.60;41.80;;;;;;5063490;28;20041;-84
2022/08/12 10:23:08;;;;;;;1.95;0.70;;;30.30;41.20;;;;;;5065913;28;20048;-83
2022/08/12 10:31:03;;;;;;;6.07;1.08;;;29.60;40.70;;;;;;5068629;28;20112;-82
2022/08/12 10:33:29;;;;;;;1.85;0.82;;;29.70;41.40;;;;;;5068000;28;20086;-82
2022/08/12 10:35:57;;;;;;;2.63;0.80;;;29.80;40.80;;;;;;5066422;28;20119;-82
2022/08/12 10:38:23;;;;;;;1.20;0.68;;;30.00;40.70;;;;;;5066008;28;20035;-82
2022/08/12 10:43:41;;;;;;;2.28;0.75;;;30.20;40.10;;;;;;5067362;28;20047;-81
2022/08/12 10:46:16;;;;;;;1.30;0.68;;;30.20;40.80;;;;;;5065931;28;20024;-82
2022/08/12 10:48:47;;;;;;;2.05;0.65;;;29.90;40.80;;;;;;5065853;28;20029;-83
2022/08/12 10:51:14;;;;;;;3.80;0.70;;;29.70;41.10;;;;;;5066508;28;20393;-83
2022/08/12 10:53:42;;;;;;;1.55;0.70;;;29.80;41.60;;;;;;5066860;28;20017;-82
2022/08/12 10:56:10;;;;;;;2.97;0.95;;;29.80;41.40;;;;;;5066051;28;20066;-82
2022/08/12 10:58:37;;;;;;;2.92;0.80;;;29.90;41.10;;;;;;5065727;28;20021;-82
2022/08/12 11:01:09;;;;;;;2.35;0.70;;;30.00;41.60;;;;;;5065579;28;20043;-82
2022/08/12 11:03:39;;;;;;;4.47;1.40;;;30.20;40.80;;;;;;5065942;28;20556;-83
2022/08/12 11:06:09;;;;;;;1.50;0.80;;;30.20;40.80;;;;;;5065975;28;20029;-81
2022/08/12 11:08:37;;;;;;;12.95;2.30;;;30.10;41.10;;;;;;5065841;28;20496;-83
2022/08/12 11:11:07;;;;;;;1.75;0.50;;;30.00;40.80;;;;;;5065704;28;20020;-82
2022/08/12 11:13:34;;;;;;;8.02;1.13;;;29.90;40.60;;;;;;5065781;28;20028;-82
2022/08/12 11:16:00;;;;;;;1.27;0.70;;;29.80;41.00;;;;;;5066996;28;20031;-82
2022/08/12 11:18:26;;;;;;;1.70;0.70;;;29.90;40.90;;;;;;5066092;28;20863;-82
2022/08/12 11:20:53;;;;;;;2.72;0.77;;;29.90;40.10;;;;;;5065759;28;20021;-82
2022/08/12 11:23:19;;;;;;;6.05;0.80;;;29.70;40.10;;;;;;5065616;28;20376;-82
2022/08/12 11:25:46;;;;;;;2.58;1.20;;;29.80;40.60;;;;;;5065664;28;20546;-82
2022/08/12 11:28:13;;;;;;;41.13;2.50;;;29.80;40.30;;;;;;5066577;28;20428;-82
2022/08/12 11:30:38;;;;;;;8.80;0.93;;;29.90;40.30;;;;;;5066623;28;20019;-82
2022/08/12 11:33:04;;;;;;;3.55;0.80;;;30.10;40.40;;;;;;5065236;28;20066;-82
2022/08/12 11:35:30;;;;;;;2.90;0.77;;;30.10;40.00;;;;;;5065588;28;20036;-82
2022/08/12 11:37:58;;;;;;;1.50;0.63;;;30.30;40.00;;;;;;5065536;28;20071;-80
2022/08/12 11:40:24;;;;;;;1.40;0.70;;;30.10;39.50;;;;;;5069390;28;20027;-83
2022/08/12 11:42:50;;;;;;;2.03;0.95;;;30.20;39.80;;;;;;5071085;28;20049;-82
2022/08/12 11:45:15;;;;;;;6.47;0.80;;;30.10;39.60;;;;;;5069378;28;20024;-82
2022/08/12 11:47:41;;;;;;;4.00;0.80;;;30.20;39.80;;;;;;5070262;28;20032;-81
2022/08/12 11:50:07;;;;;;;4.70;0.80;;;30.20;40.20;;;;;;5070717;28;20052;-83
2022/08/12 11:52:33;;;;;;;1.52;0.65;;;30.20;39.10;;;;;;5069101;28;20047;-82
2022/08/12 11:54:58;;;;;;;2.03;0.70;;;30.00;38.90;;;;;;5069403;28;20493;-82
2022/08/12 11:57:24;;;;;;;3.90;0.80;;;29.70;38.80;;;;;;5069416;28;20513;-82
2022/08/12 11:59:49;;;;;;;2.83;0.70;;;29.50;39.60;;;;;;5069590;28;20043;-83
2022/08/12 12:02:15;;;;;;;3.13;0.70;;;29.40;40.20;;;;;;5069282;28;20020;-82
2022/08/12 12:04:41;;;;;;;3.95;0.65;;;29.20;40.10;;;;;;5069957;28;20044;-82
2022/08/12 12:07:06;;;;;;;1.77;0.75;;;29.10;40.00;;;;;;5068720;28;20021;-82
2022/08/12 12:09:32;;;;;;;1.77;0.93;;;29.20;40.00;;;;;;5069113;28;20123;-81
2022/08/12 12:11:59;;;;;;;4.10;0.75;;;29.30;40.30;;;;;;5068831;28;20058;-82
2022/08/12 12:14:26;;;;;;;1.50;0.70;;;29.60;40.00;;;;;;5068817;28;20059;-82
2022/08/12 12:16:51;;;;;;;6.63;0.60;;;30.00;39.10;;;;;;5069426;28;20029;-83
2022/08/12 12:19:17;;;;;;;3.42;0.70;;;30.20;39.00;;;;;;5089734;28;20131;-82
2022/08/12 12:21:43;;;;;;;2.03;0.68;;;30.40;38.00;;;;;;5089674;28;20032;-82
2022/08/12 12:24:09;;;;;;;3.88;0.70;;;30.50;38.30;;;;;;5088468;28;20055;-82
2022/08/12 12:26:34;;;;;;;2.08;0.60;;;30.60;38.10;;;;;;5073960;28;20028;-83
2022/08/12 12:29:00;;;;;;;2.85;0.90;;;30.70;37.60;;;;;;5070310;28;20064;-83
2022/08/12 12:31:25;;;;;;;2.72;0.63;;;30.40;37.80;;;;;;5070023;28;20028;-83
2022/08/12 12:33:51;;;;;;;3.05;0.77;;;30.30;38.20;;;;;;5068293;28;20028;-82
2022/08/12 12:36:17;;;;;;;2.17;0.60;;;30.20;38.50;;;;;;5068775;28;20390;-83
2022/08/12 12:38:42;;;;;;;2.47;0.57;;;30.10;37.80;;;;;;5068158;28;20051;-83
2022/08/12 12:41:08;;;;;;;5.00;0.95;;;30.10;37.10;;;;;;5068287;28;20381;-83
2022/08/12 12:43:34;;;;;;;2.55;1.05;;;30.10;37.70;;;;;;5068542;28;20405;-81
2022/08/12 12:45:59;;;;;;;1.83;0.90;;;30.10;37.90;;;;;;5068376;28;20074;-83
2022/08/12 12:48:25;;;;;;;1.88;0.60;;;30.20;38.50;;;;;;5068824;28;20439;-83
2022/08/12 12:53:43;;;;;;;3.78;0.75;;;30.20;37.80;;;;;;5070044;28;20044;-82
2022/08/12 12:56:22;;;;;;;1.23;0.70;;;29.90;38.00;;;;;;5069486;28;20016;-83
2022/08/12 12:58:51;;;;;;;1.00;0.60;;;30.00;38.80;;;;;;5068281;28;20036;-83
2022/08/12 13:01:24;;;;;;;1.10;0.73;;;29.80;39.10;;;;;;5068662;28;20490;-84
2022/08/12 13:03:55;;;;;;;2.47;0.75;;;29.90;40.60;;;;;;5068588;28;20131;-81
2022/08/12 13:06:24;;;;;;;0.80;0.60;;;30.20;40.40;;;;;;5068636;28;20025;-83
2022/08/12 13:08:50;;;;;;;2.72;0.80;;;30.40;40.80;;;;;;5078221;28;20127;-83
2022/08/12 13:11:20;;;;;;;1.42;0.70;;;30.40;39.80;;;;;;5088602;28;20026;-84
2022/08/12 13:13:48;;;;;;;1.58;0.70;;;30.30;40.00;;;;;;5088325;28;20031;-83
2022/08/12 13:16:20;;;;;;;1.45;0.50;;;30.10;39.90;;;;;;5089914;28;20024;-83
2022/08/12 13:18:50;;;;;;;1.88;0.70;;;29.90;39.80;;;;;;5072182;28;20070;-83
2022/08/12 13:21:17;;;;;;;2.40;0.70;;;29.70;40.00;;;;;;5068248;28;20047;-83
2022/08/12 13:23:47;;;;;;;1.05;0.60;;;29.60;40.20;;;;;;5067602;28;20058;-82
2022/08/12 13:26:18;;;;;;;3.47;0.82;;;29.50;39.50;;;;;;5067466;28;20017;-83
2022/08/12 13:28:48;;;;;;;3.38;0.80;;;29.50;39.50;;;;;;5067762;28;20044;-81
2022/08/12 13:31:16;;;;;;;4.47;1.17;;;29.50;39.30;;;;;;5067823;28;20033;-82
2022/08/12 13:33:42;;;;;;;4.20;0.70;;;29.70;40.60;;;;;;5068557;28;20503;-83
2022/08/12 13:36:09;;;;;;;2.53;0.68;;;30.10;39.50;;;;;;5067708;28;20029;-84
2022/08/12 13:38:40;;;;;;;1.17;0.50;;;30.20;38.80;;;;;;5067636;28;20020;-82
2022/08/12 13:41:31;;;;;;;2.05;0.70;;;30.20;38.60;;;;;;5067713;28;20294;-82
2022/08/12 13:43:56;;;;;;;3.70;0.60;;;30.10;38.30;;;;;;5068211;28;20186;-83
2022/08/12 13:46:23;;;;;;;5.97;0.57;;;30.00;39.10;;;;;;5067817;28;20107;-83
2022/08/12 13:48:48;;;;;;;5.15;0.75;;;29.80;39.20;;;;;;5067283;28;20032;-82
2022/08/12 13:51:14;;;;;;;3.45;1.23;;;29.70;38.60;;;;;;5068457;28;20028;-83
2022/08/12 13:53:40;;;;;;;1.80;0.60;;;29.60;39.10;;;;;;5066751;28;20032;-82
2022/08/12 13:56:05;;;;;;;1.10;0.60;;;29.60;39.30;;;;;;5067279;28;20103;-83
2022/08/12 13:58:33;;;;;;;5.07;0.60;;;29.60;39.30;;;;;;5067903;28;20413;-84
2022/08/12 14:01:03;;;;;;;5.93;0.85;;;29.80;38.80;;;;;;5066958;28;20035;-83
2022/08/12 14:03:28;;;;;;;1.40;0.88;;;30.00;38.90;;;;;;5066327;28;20120;-83
2022/08/12 14:05:58;;;;;;;3.95;0.68;;;30.00;38.90;;;;;;5068445;28;20096;-82
2022/08/12 14:08:23;;;;;;;0.93;0.50;;;30.10;38.00;;;;;;5067063;28;20020;-83
2022/08/12 14:10:52;;;;;;;1.05;0.50;;;29.90;37.20;;;;;;5066753;28;20024;-83
2022/08/12 14:13:20;;;;;;;4.38;0.70;;;29.80;38.10;;;;;;5066769;28;20032;-83
2022/08/12 14:15:49;;;;;;;4.45;0.88;;;29.90;38.40;;;;;;5067095;28;20405;-82
2022/08/12 14:18:26;;;;;;;1.13;0.60;;;29.60;37.80;;;;;;5066400;28;20349;-83
2022/08/12 14:20:57;;;;;;;2.47;0.65;;;29.50;38.00;;;;;;5066479;28;20497;-82
2022/08/12 14:23:25;;;;;;;2.88;0.60;;;29.40;38.00;;;;;;5066081;28;20139;-83
2022/08/12 14:25:52;;;;;;;2.10;0.90;;;29.20;38.10;;;;;;5067225;28;20771;-83
2022/08/12 14:28:19;;;;;;;3.65;0.70;;;29.10;38.30;;;;;;5067643;28;20417;-83
2022/08/12 14:30:52;;;;;;;2.92;0.60;;;29.00;38.70;;;;;;5066565;28;20123;-83
2022/08/12 14:33:29;;;;;;;1.55;0.57;;;28.80;39.20;;;;;;5066293;28;20028;-82
2022/08/12 14:35:56;;;;;;;5.07;0.63;;;28.70;39.40;;;;;;5066591;28;20031;-83
2022/08/12 14:38:38;;;;;;;2.13;0.70;;;28.60;39.20;;;;;;5065910;28;20386;-82
2022/08/12 14:41:05;;;;;;;1.60;0.80;;;28.60;38.40;;;;;;5066497;28;20024;-82